Time;durP1;ratioP1;P1;durP2;ratioP2;P2;SDS_P1;SDS_P2;PMS_P1;PMS_P2;Temp;Humidity;BMP_temperature;BMP_pressure;BME280_temperature;BME280_humidity;BME280_pressure;Samples;Min_cycle;Max_cycle;Signal;HPM_P1;HPM_P2
2023/01/01 00:01:53;;;;;;;24.90;16.25;;;;;;;;;;5073212;28;20041;-63
2023/01/01 00:04:19;;;;;;;23.73;15.50;;;;;;;;;;5068615;28;20056;-72
2023/01/01 00:06:45;;;;;;;24.77;15.85;;;16.00;99.90;;;;;;5051564;28;20051;-71
2023/01/01 00:11:55;;;;;;;24.17;15.52;;;15.80;99.90;;;;;;5056552;28;20114;-60
2023/01/01 00:14:21;;;;;;;21.20;14.32;;;16.00;99.90;;;;;;5056780;28;20041;-60
2023/01/01 00:16:47;;;;;;;20.88;14.10;;;15.90;99.90;;;;;;5072578;28;20044;-70
2023/01/01 00:19:13;;;;;;;21.00;14.15;;;15.90;99.90;;;;;;5075107;28;20049;-64
2023/01/01 00:21:39;;;;;;;25.52;13.80;;;15.50;99.90;;;;;;5072424;28;20044;-69
2023/01/01 00:24:05;;;;;;;22.70;12.98;;;15.90;99.90;;;;;;5058512;28;20106;-71
2023/01/01 00:26:31;;;;;;;21.77;13.23;;;16.00;99.90;;;;;;5064114;28;20037;-71
2023/01/01 00:28:57;;;;;;;19.20;13.05;;;15.70;99.90;;;;;;5065104;28;20049;-73
2023/01/01 00:31:23;;;;;;;20.63;12.90;;;15.70;99.90;;;;;;5061148;28;20409;-61
2023/01/01 00:33:52;;;;;;;22.75;12.73;;;16.00;99.60;;;;;;5056099;28;20041;-65
2023/01/01 00:36:19;;;;;;;20.48;13.00;;;15.80;99.90;;;;;;5056465;28;20048;-68
2023/01/01 00:38:44;;;;;;;19.38;12.38;;;15.80;99.90;;;;;;5055865;28;20045;-64
2023/01/01 00:41:11;;;;;;;23.45;11.80;;;15.60;99.90;;;;;;5056150;28;20044;-65
2023/01/01 00:43:37;;;;;;;24.98;12.02;;;15.50;99.90;;;;;;5055714;28;20072;-65
2023/01/01 00:46:03;;;;;;;18.92;11.52;;;15.50;99.90;;;;;;5060728;28;20037;-64
2023/01/01 00:48:29;;;;;;;20.65;12.07;;;;;;;;;;5068893;28;20386;-69
2023/01/01 00:50:55;;;;;;;18.95;11.27;;;15.60;99.90;;;;;;5057988;28;20047;-64
2023/01/01 00:53:21;;;;;;;19.88;12.32;;;15.70;99.90;;;;;;5038638;28;20498;-70
2023/01/01 00:55:47;;;;;;;20.80;12.52;;;15.80;99.90;;;;;;5055643;28;20482;-67
2023/01/01 00:58:14;;;;;;;22.60;12.18;;;;;;;;;;5055982;28;20048;-70
2023/01/01 01:00:40;;;;;;;24.98;12.18;;;16.00;99.90;;;;;;5071714;28;20192;-69
2023/01/01 01:03:05;;;;;;;19.15;11.68;;;15.70;99.90;;;;;;5068313;28;20041;-70
2023/01/01 01:05:31;;;;;;;18.63;12.93;;;15.70;99.90;;;;;;5057000;28;20231;-62
2023/01/01 01:07:59;;;;;;;21.13;12.80;;;16.10;99.90;;;;;;5041058;28;20537;-71
2023/01/01 01:10:25;;;;;;;20.58;13.57;;;;;;;;;;5065549;28;20078;-62
2023/01/01 01:12:51;;;;;;;22.40;13.90;;;15.90;99.90;;;;;;5043271;28;20494;-69
2023/01/01 01:15:17;;;;;;;23.90;13.80;;;15.60;99.90;;;;;;5075419;28;20071;-67
2023/01/01 01:17:43;;;;;;;22.52;14.35;;;15.90;99.90;;;;;;5075634;28;20037;-70
2023/01/01 01:20:10;;;;;;;24.45;14.73;;;;;;;;;;5048789;28;20075;-62
2023/01/01 01:22:36;;;;;;;23.98;14.90;;;15.80;99.90;;;;;;5055666;28;20446;-71
2023/01/01 01:25:01;;;;;;;22.33;15.13;;;15.90;99.90;;;;;;5055428;28;20090;-68
2023/01/01 01:27:27;;;;;;;26.10;16.05;;;15.70;99.90;;;;;;5037803;28;20510;-65
2023/01/01 01:29:53;;;;;;;23.90;16.08;;;15.80;99.90;;;;;;5055046;28;20102;-69
2023/01/01 01:32:19;;;;;;;22.08;16.13;;;15.70;99.90;;;;;;5055255;28;20037;-65
2023/01/01 01:34:45;;;;;;;25.52;16.13;;;15.80;99.90;;;;;;5056636;28;20128;-62
2023/01/01 01:37:11;;;;;;;23.02;16.52;;;15.40;99.90;;;;;;5058016;28;20049;-63
2023/01/01 01:39:37;;;;;;;24.38;16.77;;;16.00;99.90;;;;;;5055534;28;20044;-60
2023/01/01 01:42:03;;;;;;;23.17;16.08;;;15.80;99.90;;;;;;5062169;28;20040;-60
2023/01/01 01:44:45;;;;;;;27.05;17.88;;;15.70;99.90;;;;;;5075027;28;20090;-60
2023/01/01 01:47:23;;;;;;;29.27;17.58;;;15.40;99.90;;;;;;5041918;28;20128;-60
2023/01/01 01:49:51;;;;;;;27.65;17.13;;;15.80;99.90;;;;;;5042437;28;20390;-60
2023/01/01 01:52:17;;;;;;;24.85;18.30;;;15.90;99.90;;;;;;5055016;28;20037;-60
2023/01/01 01:54:42;;;;;;;28.27;17.70;;;15.60;99.90;;;;;;5037118;28;20045;-66
2023/01/01 01:57:09;;;;;;;25.65;17.25;;;;;;;;;;5055388;28;20037;-59
2023/01/01 01:59:36;;;;;;;30.42;19.95;;;15.80;99.90;;;;;;5059640;28;20060;-69
2023/01/01 02:02:02;;;;;;;30.95;19.00;;;15.80;99.90;;;;;;5055632;28;20045;-64
2023/01/01 02:04:28;;;;;;;26.77;18.33;;;;;;;;;;5036568;28;20442;-61
2023/01/01 02:06:54;;;;;;;29.25;19.23;;;15.90;99.90;;;;;;5069099;28;20083;-63
2023/01/01 02:09:20;;;;;;;26.05;19.48;;;15.90;99.90;;;;;;5038429;28;20119;-66
2023/01/01 02:11:46;;;;;;;32.55;19.30;;;15.70;99.90;;;;;;5036255;28;20124;-66
2023/01/01 02:14:11;;;;;;;31.50;18.85;;;15.80;99.90;;;;;;5068618;28;20074;-63
2023/01/01 02:16:51;;;;;;;28.80;19.50;;;15.70;99.90;;;;;;5051345;28;20045;-69
2023/01/01 02:19:38;;;;;;;22.80;18.02;;;15.90;99.90;;;;;;5054168;28;20053;-72
2023/01/01 02:22:21;;;;;;;31.73;20.65;;;15.70;99.90;;;;;;5056190;28;20056;-72
2023/01/01 02:24:59;;;;;;;27.85;18.75;;;15.60;99.90;;;;;;5054666;28;20086;-71
2023/01/01 02:27:46;;;;;;;27.80;19.05;;;15.70;99.90;;;;;;5062616;28;20049;-72
2023/01/01 02:30:12;;;;;;;29.38;18.70;;;15.60;99.90;;;;;;5054325;28;20413;-64
2023/01/01 02:32:44;;;;;;;25.33;17.83;;;15.70;99.90;;;;;;5038733;28;20111;-69
2023/01/01 02:38:10;;;;;;;25.98;18.92;;;15.90;99.90;;;;;;5046992;28;20306;-67
2023/01/01 02:40:39;;;;;;;28.70;19.58;;;15.80;99.90;;;;;;5036719;28;20486;-62
2023/01/01 02:43:05;;;;;;;27.70;18.08;;;15.60;99.90;;;;;;5048806;28;20044;-60
2023/01/01 02:45:31;;;;;;;27.73;19.02;;;15.80;99.90;;;;;;5054760;28;20127;-60
2023/01/01 02:48:01;;;;;;;26.15;18.63;;;15.80;99.90;;;;;;5073936;28;20072;-67
2023/01/01 02:50:27;;;;;;;24.45;17.75;;;15.80;99.90;;;;;;5072069;28;20146;-66
2023/01/01 02:52:56;;;;;;;23.73;17.88;;;15.70;99.90;;;;;;5073577;28;20485;-61
2023/01/01 02:55:38;;;;;;;27.15;18.67;;;15.60;99.90;;;;;;5035877;28;20079;-69
2023/01/01 03:00:56;;;;;;;26.15;17.63;;;;;;;;;;5038684;28;20053;-70
2023/01/01 03:03:48;;;;;;;26.25;16.38;;;15.50;99.90;;;;;;5051694;28;20060;-60
2023/01/01 03:06:27;;;;;;;23.88;16.48;;;15.90;99.90;;;;;;5049205;28;20053;-65
2023/01/01 03:09:26;;;;;;;28.13;16.92;;;15.80;99.90;;;;;;5053683;28;20041;-70
2023/01/01 03:12:15;;;;;;;22.25;15.00;;;15.60;99.90;;;;;;5053611;28;20092;-66
2023/01/01 03:14:56;;;;;;;26.40;16.20;;;15.90;99.90;;;;;;5057380;28;20085;-61
2023/01/01 03:17:37;;;;;;;20.20;13.63;;;15.80;99.90;;;;;;5062497;28;20052;-67
2023/01/01 03:20:12;;;;;;;19.02;13.93;;;15.80;99.90;;;;;;5072424;28;20118;-61
2023/01/01 03:22:39;;;;;;;22.85;13.68;;;15.70;99.90;;;;;;5055648;28;20040;-67
2023/01/01 03:25:23;;;;;;;19.38;12.75;;;15.50;99.90;;;;;;5065250;28;20075;-62
2023/01/01 03:27:56;;;;;;;20.02;12.77;;;15.70;99.90;;;;;;5035550;28;20080;-69
2023/01/01 03:30:22;;;;;;;20.58;11.98;;;16.00;99.90;;;;;;5035958;28;20052;-65
2023/01/01 03:33:00;;;;;;;22.15;12.38;;;15.70;99.90;;;;;;5018966;28;20076;-68
2023/01/01 03:35:59;;;;;;;17.13;10.90;;;15.70;99.90;;;;;;5038762;28;20411;-62
2023/01/01 03:39:03;;;;;;;18.70;11.35;;;15.50;99.90;;;;;;5035214;28;20051;-63
2023/01/01 03:41:38;;;;;;;19.23;11.02;;;15.80;99.90;;;;;;4999553;28;20519;-66
2023/01/01 03:44:12;;;;;;;19.20;10.55;;;15.80;99.90;;;;;;4995186;28;20053;-62
2023/01/01 03:46:38;;;;;;;19.05;9.95;;;15.90;99.90;;;;;;4975416;28;20113;-60
2023/01/01 03:49:04;;;;;;;18.52;9.25;;;15.70;99.90;;;;;;4991662;28;20695;-69
2023/01/01 03:51:37;;;;;;;16.55;9.13;;;15.70;99.90;;;;;;4986164;28;20042;-61
2023/01/01 03:54:07;;;;;;;16.77;9.38;;;15.80;99.90;;;;;;4975922;28;20129;-61
2023/01/01 03:56:36;;;;;;;15.57;8.77;;;15.70;99.90;;;;;;4983009;28;20431;-64
2023/01/01 03:59:09;;;;;;;16.73;9.52;;;15.80;99.90;;;;;;5010672;28;20042;-60
2023/01/01 04:01:40;;;;;;;17.42;8.38;;;16.00;99.90;;;;;;5011136;28;20489;-60
2023/01/01 04:04:06;;;;;;;16.15;7.88;;;15.80;99.90;;;;;;4995295;28;20093;-65
2023/01/01 04:06:32;;;;;;;15.80;7.80;;;16.00;99.90;;;;;;4990995;28;20136;-65
2023/01/01 04:08:58;;;;;;;16.58;8.20;;;;;;;;;;5010175;28;20471;-59
2023/01/01 04:14:10;;;;;;;13.18;7.22;;;15.70;99.90;;;;;;4982932;28;20054;-63
2023/01/01 04:16:36;;;;;;;13.43;7.60;;;15.80;99.90;;;;;;5053254;28;20068;-60
2023/01/01 04:19:02;;;;;;;16.13;6.43;;;15.70;99.90;;;;;;5072526;28;20106;-69
2023/01/01 04:21:27;;;;;;;12.98;6.43;;;15.90;99.90;;;;;;5072519;28;20118;-68
2023/01/01 04:23:53;;;;;;;15.18;6.55;;;15.90;99.90;;;;;;5072975;28;20083;-68
2023/01/01 04:26:19;;;;;;;14.00;6.82;;;15.80;99.90;;;;;;5063279;28;20447;-69
2023/01/01 04:28:45;;;;;;;14.07;6.30;;;16.10;99.90;;;;;;5068706;28;20499;-62
2023/01/01 04:31:10;;;;;;;10.13;5.60;;;15.60;99.90;;;;;;5070743;28;20101;-67
2023/01/01 04:33:37;;;;;;;11.95;6.32;;;;;;;;;;5072563;28;20040;-69
2023/01/01 04:36:07;;;;;;;15.18;6.18;;;15.70;99.90;;;;;;5065014;28;20132;-66
2023/01/01 04:38:35;;;;;;;12.25;6.38;;;16.10;99.90;;;;;;5056216;28;20041;-62
2023/01/01 04:41:01;;;;;;;12.98;5.75;;;15.90;99.90;;;;;;5056344;28;20040;-60
2023/01/01 04:43:28;;;;;;;15.05;7.03;;;16.20;99.90;;;;;;5056534;28;20083;-59
2023/01/01 04:45:58;;;;;;;11.65;6.32;;;16.00;99.90;;;;;;5043563;28;20083;-60
2023/01/01 04:48:24;;;;;;;10.23;5.38;;;16.00;99.90;;;;;;5062048;28;20416;-60
2023/01/01 04:51:00;;;;;;;10.98;5.55;;;15.80;99.70;;;;;;5056217;28;20487;-60
2023/01/01 04:53:28;;;;;;;11.93;5.45;;;16.00;99.90;;;;;;5055593;28;20095;-70
2023/01/01 04:55:54;;;;;;;9.43;4.93;;;15.90;99.90;;;;;;5055993;28;20052;-61
2023/01/01 04:58:20;;;;;;;11.25;4.88;;;16.10;99.90;;;;;;5055645;28;20095;-63
2023/01/01 05:00:49;;;;;;;8.38;4.82;;;16.00;99.90;;;;;;5056203;28;20045;-69
2023/01/01 05:03:16;;;;;;;10.57;4.93;;;16.10;99.90;;;;;;5057527;28;20483;-61
2023/01/01 05:05:42;;;;;;;8.65;4.63;;;16.00;99.90;;;;;;5059956;28;20049;-66
2023/01/01 05:08:07;;;;;;;10.73;4.40;;;16.10;99.90;;;;;;5055352;28;20044;-66
2023/01/01 05:10:33;;;;;;;9.70;5.00;;;16.10;99.90;;;;;;5055789;28;20201;-64
2023/01/01 05:12:59;;;;;;;12.43;6.05;;;16.00;99.90;;;;;;5055407;28;20060;-70
2023/01/01 05:15:24;;;;;;;11.52;4.40;;;16.00;99.90;;;;;;5037552;28;20036;-62
2023/01/01 05:17:50;;;;;;;9.88;4.28;;;;;;;;;;5056432;28;20065;-60
2023/01/01 05:20:16;;;;;;;9.82;4.43;;;16.00;99.90;;;;;;5074371;28;20098;-61
2023/01/01 05:22:44;;;;;;;9.65;4.55;;;16.20;99.90;;;;;;5057693;28;20049;-60
2023/01/01 05:25:10;;;;;;;9.48;4.18;;;16.10;99.90;;;;;;5057691;28;20048;-59
2023/01/01 05:27:35;;;;;;;9.27;4.00;;;16.10;99.90;;;;;;5057175;28;20052;-60
2023/01/01 05:30:01;;;;;;;10.10;4.28;;;16.00;99.90;;;;;;5057287;28;20037;-69
2023/01/01 05:32:27;;;;;;;9.95;4.30;;;16.00;99.90;;;;;;5054637;28;20041;-60
2023/01/01 05:34:53;;;;;;;7.70;4.05;;;16.00;99.90;;;;;;5055364;28;20049;-60
2023/01/01 05:37:19;;;;;;;13.55;4.00;;;16.00;99.90;;;;;;5055358;28;20053;-63
2023/01/01 05:39:45;;;;;;;8.50;3.90;;;15.80;99.90;;;;;;5054718;28;20047;-61
2023/01/01 05:42:11;;;;;;;10.07;3.75;;;16.20;99.90;;;;;;5055769;28;20493;-60
2023/01/01 05:44:37;;;;;;;9.27;3.72;;;15.90;99.90;;;;;;5068967;28;20059;-60
2023/01/01 05:47:02;;;;;;;10.70;3.67;;;15.80;99.90;;;;;;5056066;28;20128;-60
2023/01/01 05:49:28;;;;;;;9.27;4.15;;;16.00;99.90;;;;;;5056958;28;20037;-65
2023/01/01 05:51:54;;;;;;;10.82;3.90;;;16.00;99.90;;;;;;5060224;28;20045;-60
2023/01/01 05:54:20;;;;;;;9.23;3.40;;;16.10;99.90;;;;;;5063702;28;20089;-61
2023/01/01 05:56:45;;;;;;;8.30;3.15;;;16.10;99.90;;;;;;5073809;28;20123;-62
2023/01/01 05:59:11;;;;;;;8.68;3.35;;;16.00;99.90;;;;;;5062525;28;20045;-66
2023/01/01 06:01:37;;;;;;;8.23;3.28;;;15.80;99.90;;;;;;5054184;28;20037;-70
2023/01/01 06:04:03;;;;;;;8.27;3.00;;;16.20;99.90;;;;;;5057277;28;20494;-68
2023/01/01 06:06:30;;;;;;;10.02;3.45;;;16.00;99.90;;;;;;5074351;28;20048;-59
2023/01/01 06:09:00;;;;;;;10.23;2.95;;;16.10;99.90;;;;;;5060118;28;20197;-63
2023/01/01 06:11:26;;;;;;;9.75;2.88;;;16.00;99.90;;;;;;5054350;28;20045;-66
2023/01/01 06:13:56;;;;;;;9.70;3.33;;;16.00;99.90;;;;;;5054203;28;20367;-65
2023/01/01 06:16:22;;;;;;;8.57;3.40;;;16.00;99.90;;;;;;5054440;28;20103;-60
2023/01/01 06:18:48;;;;;;;6.38;2.38;;;16.30;99.90;;;;;;5065254;28;20498;-60
2023/01/01 06:21:15;;;;;;;8.43;2.72;;;15.90;99.90;;;;;;5066748;28;20053;-60
2023/01/01 06:23:41;;;;;;;6.90;2.20;;;15.90;99.90;;;;;;5054097;28;20080;-60
2023/01/01 06:26:11;;;;;;;8.95;2.70;;;16.00;99.90;;;;;;5040876;28;20098;-63
2023/01/01 06:28:38;;;;;;;9.68;3.00;;;;;;;;;;5073916;28;20050;-67
2023/01/01 06:31:04;;;;;;;6.28;2.30;;;16.00;99.90;;;;;;5071824;28;20055;-60
2023/01/01 06:33:30;;;;;;;8.73;2.50;;;15.80;99.90;;;;;;5072352;28;20044;-63
2023/01/01 06:35:56;;;;;;;6.90;2.70;;;15.70;99.90;;;;;;5073128;28;20474;-59
2023/01/01 06:38:22;;;;;;;5.88;2.58;;;16.00;99.90;;;;;;5074126;28;20075;-63
2023/01/01 06:40:58;;;;;;;6.72;2.30;;;16.00;99.90;;;;;;5069143;28;20473;-60
2023/01/01 06:43:24;;;;;;;9.13;2.63;;;15.70;99.90;;;;;;5054002;28;20056;-62
2023/01/01 06:46:02;;;;;;;5.32;2.28;;;15.90;99.70;;;;;;5072686;28;20040;-66
2023/01/01 06:48:29;;;;;;;5.88;2.10;;;16.30;99.80;;;;;;5055804;28;20048;-60
2023/01/01 06:50:55;;;;;;;6.28;2.10;;;15.70;99.90;;;;;;5071009;28;20036;-60
2023/01/01 06:53:27;;;;;;;8.05;2.58;;;16.10;99.90;;;;;;5055618;28;20086;-60
2023/01/01 06:55:52;;;;;;;6.70;2.38;;;16.20;99.90;;;;;;5073499;28;20047;-60
2023/01/01 06:58:18;;;;;;;8.07;2.08;;;15.90;99.90;;;;;;5072427;28;20041;-62
2023/01/01 07:00:44;;;;;;;7.00;2.03;;;16.00;99.80;;;;;;5055577;28;20099;-60
2023/01/01 07:03:10;;;;;;;6.35;2.17;;;15.70;99.90;;;;;;5055935;28;20108;-66
2023/01/01 07:05:36;;;;;;;5.22;1.80;;;16.30;99.90;;;;;;5053958;28;20045;-59
2023/01/01 07:08:02;;;;;;;5.20;1.95;;;;;;;;;;5054186;28;20041;-69
2023/01/01 07:10:28;;;;;;;5.53;2.15;;;15.90;99.90;;;;;;5055882;28;20045;-64
2023/01/01 07:12:53;;;;;;;7.32;2.40;;;16.00;99.90;;;;;;5071452;28;20041;-60
2023/01/01 07:15:19;;;;;;;6.32;1.90;;;15.80;99.90;;;;;;5071455;28;20040;-60
2023/01/01 07:17:45;;;;;;;3.60;1.60;;;16.10;99.40;;;;;;5053579;28;20045;-61
2023/01/01 07:20:11;;;;;;;5.57;1.90;;;15.60;99.90;;;;;;5053197;28;20430;-60
2023/01/01 07:22:37;;;;;;;4.50;1.60;;;15.70;99.90;;;;;;5064667;28;20165;-60
2023/01/01 07:25:03;;;;;;;5.88;2.22;;;16.30;99.50;;;;;;5037506;28;20040;-60
2023/01/01 07:27:28;;;;;;;4.15;1.55;;;16.10;99.90;;;;;;5070718;28;20127;-60
2023/01/01 07:29:54;;;;;;;6.70;2.28;;;16.00;99.30;;;;;;5053451;28;20398;-60
2023/01/01 07:32:20;;;;;;;5.70;1.50;;;15.90;99.90;;;;;;5053406;28;20372;-61
2023/01/01 07:34:46;;;;;;;6.47;1.70;;;15.90;99.90;;;;;;5053301;28;20497;-61
2023/01/01 07:37:11;;;;;;;5.28;1.55;;;16.00;99.90;;;;;;5054519;28;20475;-64
2023/01/01 07:39:37;;;;;;;6.28;1.40;;;;;;;;;;5073055;28;20567;-60
2023/01/01 07:42:03;;;;;;;6.05;1.80;;;16.00;99.10;;;;;;5073324;28;20052;-60
2023/01/01 07:44:29;;;;;;;6.05;1.70;;;16.00;99.90;;;;;;5072950;28;20502;-67
2023/01/01 07:47:04;;;;;;;5.47;1.52;;;15.90;98.40;;;;;;5063524;28;20052;-60
2023/01/01 07:49:30;;;;;;;4.78;1.50;;;16.10;99.90;;;;;;5040989;28;20389;-61
2023/01/01 07:51:56;;;;;;;4.72;1.25;;;15.70;99.90;;;;;;5071856;28;20040;-60
2023/01/01 07:54:22;;;;;;;8.68;1.92;;;15.90;99.90;;;;;;5073558;28;20052;-62
2023/01/01 07:56:48;;;;;;;4.80;1.75;;;16.20;99.90;;;;;;5069912;28;20051;-59
2023/01/01 07:59:13;;;;;;;5.28;1.42;;;16.00;99.90;;;;;;5073179;28;20040;-68
2023/01/01 08:01:39;;;;;;;5.32;1.73;;;16.00;99.90;;;;;;5072851;28;20102;-66
2023/01/01 08:04:05;;;;;;;6.85;1.75;;;16.00;99.90;;;;;;5053066;28;20044;-60
2023/01/01 08:06:31;;;;;;;7.10;1.83;;;15.80;99.90;;;;;;5055677;28;20478;-62
2023/01/01 08:08:57;;;;;;;7.65;1.95;;;16.20;99.90;;;;;;5053041;28;20040;-68
2023/01/01 08:11:22;;;;;;;7.72;2.25;;;16.10;99.90;;;;;;5037001;28;20045;-65
2023/01/01 08:13:48;;;;;;;9.02;1.80;;;16.00;99.90;;;;;;5057486;28;20121;-71
2023/01/01 08:16:14;;;;;;;7.13;1.80;;;16.30;99.70;;;;;;5057234;28;20463;-59
2023/01/01 08:18:40;;;;;;;9.07;1.75;;;16.00;99.90;;;;;;5055675;28;20084;-62
2023/01/01 08:21:05;;;;;;;6.50;2.10;;;16.00;99.90;;;;;;5073685;28;20045;-59
2023/01/01 08:23:31;;;;;;;7.30;2.15;;;16.10;99.90;;;;;;5073473;28;20043;-61
2023/01/01 08:25:59;;;;;;;5.85;1.70;;;15.90;98.60;;;;;;5056424;28;20449;-68
2023/01/01 08:28:24;;;;;;;11.38;2.72;;;16.10;99.90;;;;;;5038499;28;20037;-60
2023/01/01 08:30:50;;;;;;;6.22;2.03;;;15.90;99.80;;;;;;5056279;28;20079;-59
2023/01/01 08:33:19;;;;;;;9.90;2.03;;;16.00;99.80;;;;;;5056161;28;20048;-59
2023/01/01 08:35:45;;;;;;;6.63;2.00;;;15.90;99.80;;;;;;5056376;28;20051;-61
2023/01/01 08:38:11;;;;;;;7.22;1.80;;;15.90;98.80;;;;;;5056013;28;20467;-66
2023/01/01 08:40:38;;;;;;;6.90;2.20;;;15.90;99.60;;;;;;5060799;28;20071;-61
2023/01/01 08:43:03;;;;;;;6.47;1.90;;;15.80;98.30;;;;;;5076334;28;20457;-60
2023/01/01 08:45:29;;;;;;;6.50;2.10;;;16.00;99.70;;;;;;5073449;28;20079;-61
2023/01/01 08:47:55;;;;;;;7.50;2.03;;;15.90;99.60;;;;;;5073689;28;20049;-63
2023/01/01 08:50:21;;;;;;;8.90;2.08;;;16.00;99.50;;;;;;5056928;28;20045;-59
2023/01/01 08:52:46;;;;;;;8.15;2.10;;;16.00;99.60;;;;;;5075788;28;20036;-58
2023/01/01 08:55:12;;;;;;;6.65;1.83;;;16.00;98.30;;;;;;5074156;28;20047;-71
2023/01/01 08:57:38;;;;;;;7.65;2.00;;;16.00;98.20;;;;;;5071615;28;20395;-71
2023/01/01 09:00:05;;;;;;;9.48;2.42;;;16.10;99.50;;;;;;5055454;28;20060;-61
2023/01/01 09:02:31;;;;;;;7.63;2.15;;;15.90;99.40;;;;;;5056005;28;20398;-59
2023/01/01 09:04:57;;;;;;;9.27;2.67;;;16.10;99.40;;;;;;5070766;28;20049;-62
2023/01/01 09:07:23;;;;;;;10.57;2.15;;;16.10;99.30;;;;;;5062675;28;21102;-60
2023/01/01 09:21:13;;;;;;;9.48;2.38;;;16.40;96.80;;;;;;5032241;27;2954381;-72
2023/01/01 09:23:40;;;;;;;7.93;2.00;;;16.30;97.40;;;;;;5097990;28;20516;-69
2023/01/01 09:26:08;;;;;;;6.40;1.90;;;16.30;98.70;;;;;;5095413;28;20040;-70
2023/01/01 09:28:36;;;;;;;8.88;2.10;;;;;;;;;;5075631;28;20048;-70
2023/01/01 09:31:06;;;;;;;8.27;2.00;;;;;;;;;;5096857;28;20066;-69
2023/01/01 09:33:39;;;;;;;9.18;2.28;;;;;;;;;;5078387;28;20044;-70
2023/01/01 09:36:14;;;;;;;8.90;2.40;;;;;;;;;;5095709;28;20398;-70
2023/01/01 09:38:41;;;;;;;11.75;2.20;;;;;;;;;;5078697;28;20666;-70
2023/01/01 09:41:17;;;;;;;13.05;2.47;;;16.30;97.30;;;;;;5085403;28;20131;-60
2023/01/01 09:43:46;;;;;;;;;;;16.40;97.30;;;;;;5056965;28;20044;-60
2023/01/01 09:46:13;;;;;;;10.38;2.63;;;;;;;;;;5099944;28;19998;-69
2023/01/01 09:48:48;;;;;;;10.82;2.40;;;;;;;;;;5091812;28;20047;-72
2023/01/01 09:51:22;;;;;;;10.43;2.90;;;16.50;97.10;;;;;;5079412;28;20039;-61
2023/01/01 09:53:57;;;;;;;10.25;2.75;;;16.50;97.20;;;;;;5081299;28;20082;-66
2023/01/01 09:56:28;;;;;;;8.90;2.05;;;16.40;97.20;;;;;;5095486;28;20040;-70
2023/01/01 09:59:00;;;;;;;8.35;2.33;;;;;;;;;;5077524;28;20040;-69
2023/01/01 10:01:32;;;;;;;11.65;2.33;;;;;;;;;;5095965;28;20122;-67
2023/01/01 10:04:44;;;;;;;8.23;2.58;;;16.40;96.90;;;;;;5106107;28;20371;-70
2023/01/01 10:07:40;;;;;;;8.15;2.28;;;16.50;96.10;;;;;;5095580;28;20045;-71
2023/01/01 10:10:15;;;;;;;8.30;2.25;;;16.40;96.30;;;;;;5071889;28;20097;-64
2023/01/01 10:13:15;;;;;;;7.05;1.83;;;16.40;96.40;;;;;;5090141;28;20123;-61
2023/01/01 10:16:04;;;;;;;12.70;2.53;;;;;;;;;;5087043;28;20056;-65
2023/01/01 10:18:58;;;;;;;10.95;2.83;;;16.50;96.90;;;;;;5092523;28;20125;-66
2023/01/01 10:21:33;;;;;;;10.00;2.70;;;16.50;96.90;;;;;;5096736;28;20040;-66
2023/01/01 10:24:26;;;;;;;10.45;2.55;;;16.60;98.20;;;;;;5081106;28;20110;-65
2023/01/01 10:26:55;;;;;;;8.57;2.50;;;;;;;;;;5081338;28;20045;-70
2023/01/01 10:29:39;;;;;;;9.20;2.25;;;16.50;98.20;;;;;;5074000;28;20136;-68
2023/01/01 10:32:33;;;;;;;9.52;2.65;;;16.50;96.80;;;;;;5062651;28;20048;-59
2023/01/01 10:34:59;;;;;;;7.13;2.38;;;16.60;98.20;;;;;;5077027;28;20052;-63
2023/01/01 10:37:27;;;;;;;9.30;2.30;;;16.30;98.20;;;;;;5041791;28;20453;-60
2023/01/01 10:39:53;;;;;;;9.95;2.40;;;16.50;98.10;;;;;;5057829;28;20053;-59
2023/01/01 10:42:19;;;;;;;11.15;2.60;;;16.60;98.10;;;;;;5075862;28;20044;-63
2023/01/01 10:44:44;;;;;;;8.90;1.92;;;16.70;98.20;;;;;;5075730;28;20044;-61
2023/01/01 10:47:29;;;;;;;8.80;2.17;;;16.50;96.90;;;;;;5057880;28;20494;-62
2023/01/01 10:50:06;;;;;;;9.23;2.40;;;16.70;96.80;;;;;;5077080;28;20036;-65
2023/01/01 10:52:39;;;;;;;7.65;2.70;;;16.40;96.70;;;;;;5080290;28;20115;-71
2023/01/01 10:55:25;;;;;;;9.40;2.70;;;16.70;96.90;;;;;;5077968;28;20123;-65
2023/01/01 10:57:56;;;;;;;7.47;2.30;;;;;;;;;;5066962;28;20075;-71
2023/01/01 11:00:24;;;;;;;10.27;2.78;;;16.70;96.70;;;;;;5071629;28;20120;-60
2023/01/01 11:03:15;;;;;;;11.15;2.63;;;16.70;98.10;;;;;;5095985;28;20217;-68
2023/01/01 11:06:01;;;;;;;13.18;2.88;;;16.60;96.70;;;;;;5059823;28;20044;-65
2023/01/01 11:08:28;;;;;;;8.23;2.28;;;;;;;;;;5065754;28;20040;-66
2023/01/01 11:10:55;;;;;;;7.53;2.75;;;16.80;98.00;;;;;;5079070;28;20036;-59
2023/01/01 11:13:21;;;;;;;7.90;2.30;;;16.90;98.00;;;;;;5077479;28;20051;-59
2023/01/01 11:15:46;;;;;;;13.13;2.63;;;16.80;98.00;;;;;;5077419;28;20069;-62
2023/01/01 11:18:14;;;;;;;7.20;2.40;;;16.70;96.50;;;;;;5070567;28;20044;-63
2023/01/01 11:20:45;;;;;;;9.25;2.25;;;;;;;;;;5089587;28;20063;-70
2023/01/01 11:23:34;;;;;;;8.35;2.05;;;16.90;97.70;;;;;;5075083;28;20501;-60
2023/01/01 11:26:06;;;;;;;9.15;2.38;;;16.70;96.30;;;;;;5076889;28;20036;-71
2023/01/01 11:28:36;;;;;;;11.63;2.33;;;16.80;97.50;;;;;;5089776;28;20048;-71
2023/01/01 11:31:02;;;;;;;10.13;2.88;;;;;;;;;;5088502;28;20119;-71
2023/01/01 11:33:30;;;;;;;11.70;2.42;;;16.70;96.10;;;;;;5093105;28;20511;-61
2023/01/01 11:35:55;;;;;;;9.93;2.15;;;16.70;97.40;;;;;;5075719;28;20044;-61
2023/01/01 11:38:22;;;;;;;7.50;2.17;;;16.80;97.40;;;;;;5089415;28;20055;-60
2023/01/01 11:41:16;;;;;;;11.00;2.83;;;16.70;96.00;;;;;;5075589;28;20043;-68
2023/01/01 11:43:45;;;;;;;12.57;2.50;;;16.60;97.10;;;;;;5086719;28;20055;-61
2023/01/01 11:46:15;;;;;;;7.78;2.17;;;16.60;97.10;;;;;;5076866;28;20048;-59
2023/01/01 11:48:42;;;;;;;12.32;2.40;;;16.80;97.10;;;;;;5065611;28;20137;-62
2023/01/01 11:51:10;;;;;;;10.27;2.17;;;17.20;95.80;;;;;;5056995;28;20402;-62
2023/01/01 11:53:40;;;;;;;8.52;2.28;;;16.80;97.10;;;;;;5086086;28;20408;-69
2023/01/01 11:56:14;;;;;;;11.77;2.63;;;16.70;97.00;;;;;;5074290;28;20045;-60
2023/01/01 11:58:56;;;;;;;12.10;2.92;;;16.70;95.10;;;;;;5074831;28;20037;-71
2023/01/01 12:01:37;;;;;;;9.30;2.15;;;16.60;95.50;;;;;;5056326;28;20052;-60
2023/01/01 12:04:22;;;;;;;13.05;2.60;;;16.70;94.90;;;;;;5053998;28;20634;-59
2023/01/01 12:06:54;;;;;;;8.15;2.25;;;16.90;96.80;;;;;;5089779;28;20572;-58
2023/01/01 12:09:25;;;;;;;8.68;2.45;;;16.80;96.70;;;;;;5090746;28;20439;-59
2023/01/01 12:11:58;;;;;;;7.47;2.42;;;16.90;95.50;;;;;;5092509;28;20174;-61
2023/01/01 12:14:27;;;;;;;;;;;16.70;95.30;;;;;;5070444;28;20044;-60
2023/01/01 12:17:17;;;;;;;10.55;2.10;;;16.90;94.60;;;;;;5065503;28;19920;-61
2023/01/01 12:19:57;;;;;;;12.02;2.53;;;16.90;96.70;;;;;;5090771;28;20106;-71
2023/01/01 12:22:24;;;;;;;12.05;2.40;;;16.70;96.50;;;;;;5071302;28;20586;-60
2023/01/01 12:24:50;;;;;;;9.30;2.50;;;16.80;96.40;;;;;;5092363;28;20050;-66
2023/01/01 12:27:15;;;;;;;11.23;2.50;;;16.80;96.50;;;;;;5072814;28;20040;-59
2023/01/01 12:30:07;;;;;;;12.55;2.30;;;16.90;96.30;;;;;;5064215;28;20044;-60
2023/01/01 12:32:58;;;;;;;9.60;2.60;;;16.70;96.20;;;;;;5081110;28;20172;-61
2023/01/01 12:35:43;;;;;;;13.02;2.33;;;;;;;;;;5087706;28;20068;-73
2023/01/01 12:38:12;;;;;;;16.85;2.60;;;;;;;;;;5079845;28;20040;-62
2023/01/01 12:40:56;;;;;;;6.32;2.13;;;16.60;95.00;;;;;;5086649;28;20102;-61
2023/01/01 12:43:38;;;;;;;7.85;2.03;;;16.70;94.30;;;;;;5074264;28;20124;-60
2023/01/01 12:46:14;;;;;;;10.95;2.60;;;16.60;96.30;;;;;;5066125;28;20397;-59
2023/01/01 12:49:16;;;;;;;11.00;2.53;;;16.90;95.20;;;;;;5057844;28;20044;-63
2023/01/01 12:52:13;;;;;;;11.93;2.42;;;16.80;94.60;;;;;;4969605;28;20400;-59
2023/01/01 12:54:57;;;;;;;9.38;2.63;;;17.00;95.20;;;;;;4970063;28;20039;-59
2023/01/01 12:58:07;;;;;;;9.88;2.20;;;16.90;95.20;;;;;;4958643;28;20042;-70
2023/01/01 13:00:33;;;;;;;11.60;2.33;;;16.90;96.50;;;;;;5000001;28;20061;-61
2023/01/01 13:03:04;;;;;;;9.63;2.00;;;17.00;96.40;;;;;;4979792;28;20069;-62
2023/01/01 13:05:39;;;;;;;12.25;2.60;;;;;;;;;;5003617;28;20093;-71
2023/01/01 13:08:06;;;;;;;9.52;2.45;;;16.80;96.40;;;;;;5002655;28;20046;-68
2023/01/01 13:10:37;;;;;;;9.68;2.55;;;17.00;95.00;;;;;;5004642;28;20050;-60
2023/01/01 13:13:03;;;;;;;10.40;2.35;;;;;;;;;;4968768;28;20042;-63
2023/01/01 13:15:59;;;;;;;9.27;2.17;;;16.80;95.20;;;;;;5003401;28;20176;-71
2023/01/01 13:18:34;;;;;;;8.23;2.33;;;16.90;94.50;;;;;;5002258;28;20073;-70
2023/01/01 13:21:18;;;;;;;9.43;2.53;;;16.70;94.30;;;;;;4998568;28;20053;-59
2023/01/01 13:23:45;;;;;;;9.63;2.28;;;16.90;95.70;;;;;;5003952;28;20050;-67
2023/01/01 13:26:16;;;;;;;8.45;2.42;;;16.90;94.40;;;;;;4997411;28;20033;-64
2023/01/01 13:28:56;;;;;;;8.90;2.30;;;16.80;95.10;;;;;;5030152;28;20413;-66
2023/01/01 13:31:38;;;;;;;12.25;2.70;;;16.90;94.60;;;;;;5020317;28;20154;-70